sensor_id;sensor_type;location;lat;lon;timestamp;temperature;humidity
73547;SHT30;61807;48.384;-4.386;2022-09-01T00:02:18;20.47;69.44
73547;SHT30;61807;48.384;-4.386;2022-09-01T00:04:44;20.43;69.56
73547;SHT30;61807;48.384;-4.386;2022-09-01T00:07:12;20.37;69.72
73547;SHT30;61807;48.384;-4.386;2022-09-01T00:09:39;20.36;69.82
73547;SHT30;61807;48.384;-4.386;2022-09-01T00:12:06;20.35;69.89
73547;SHT30;61807;48.384;-4.386;2022-09-01T00:14:35;20.30;69.99
73547;SHT30;61807;48.384;-4.386;2022-09-01T00:17:06;20.29;70.14
73547;SHT30;61807;48.384;-4.386;2022-09-01T00:19:31;20.29;70.18
73547;SHT30;61807;48.384;-4.386;2022-09-01T00:21:58;20.32;70.17
73547;SHT30;61807;48.384;-4.386;2022-09-01T00:24:25;20.35;70.28
73547;SHT30;61807;48.384;-4.386;2022-09-01T00:26:52;20.33;70.33
73547;SHT30;61807;48.384;-4.386;2022-09-01T00:29:17;20.36;70.38
73547;SHT30;61807;48.384;-4.386;2022-09-01T00:31:43;20.42;70.41
73547;SHT30;61807;48.384;-4.386;2022-09-01T00:34:09;20.42;70.53
73547;SHT30;61807;48.384;-4.386;2022-09-01T00:36:35;20.43;70.58
73547;SHT30;61807;48.384;-4.386;2022-09-01T00:39:00;20.43;70.58
73547;SHT30;61807;48.384;-4.386;2022-09-01T00:41:30;20.45;70.57
73547;SHT30;61807;48.384;-4.386;2022-09-01T00:43:58;20.46;70.59
73547;SHT30;61807;48.384;-4.386;2022-09-01T00:46:29;20.47;70.64
73547;SHT30;61807;48.384;-4.386;2022-09-01T00:49:02;20.46;70.63
73547;SHT30;61807;48.384;-4.386;2022-09-01T00:51:30;20.46;70.64
73547;SHT30;61807;48.384;-4.386;2022-09-01T00:53:57;20.47;70.64
73547;SHT30;61807;48.384;-4.386;2022-09-01T00:56:23;20.49;70.59
73547;SHT30;61807;48.384;-4.386;2022-09-01T00:58:50;20.52;70.63
73547;SHT30;61807;48.384;-4.386;2022-09-01T01:01:17;20.50;70.69
73547;SHT30;61807;48.384;-4.386;2022-09-01T01:03:43;20.50;70.74
73547;SHT30;61807;48.384;-4.386;2022-09-01T01:06:12;20.50;70.71
73547;SHT30;61807;48.384;-4.386;2022-09-01T01:08:43;20.49;70.74
73547;SHT30;61807;48.384;-4.386;2022-09-01T01:11:15;20.52;70.75
73547;SHT30;61807;48.384;-4.386;2022-09-01T01:14:11;20.52;70.66
73547;SHT30;61807;48.384;-4.386;2022-09-01T01:16:38;20.52;70.74
73547;SHT30;61807;48.384;-4.386;2022-09-01T01:22:24;20.49;70.83
73547;SHT30;61807;48.384;-4.386;2022-09-01T01:25:48;20.46;70.89
73547;SHT30;61807;48.384;-4.386;2022-09-01T01:28:26;20.46;71.00
73547;SHT30;61807;48.384;-4.386;2022-09-01T01:30:56;20.46;71.04
73547;SHT30;61807;48.384;-4.386;2022-09-01T01:33:25;20.47;71.04
73547;SHT30;61807;48.384;-4.386;2022-09-01T01:35:52;20.49;71.03
73547;SHT30;61807;48.384;-4.386;2022-09-01T01:38:20;20.50;71.09
73547;SHT30;61807;48.384;-4.386;2022-09-01T01:40:47;20.47;71.11
73547;SHT30;61807;48.384;-4.386;2022-09-01T01:43:12;20.49;71.04
73547;SHT30;61807;48.384;-4.386;2022-09-01T01:45:52;20.50;71.09
73547;SHT30;61807;48.384;-4.386;2022-09-01T01:48:20;20.47;71.12
73547;SHT30;61807;48.384;-4.386;2022-09-01T01:50:51;20.46;71.07
73547;SHT30;61807;48.384;-4.386;2022-09-01T01:53:18;20.45;71.18
73547;SHT30;61807;48.384;-4.386;2022-09-01T01:55:47;20.43;71.20
73547;SHT30;61807;48.384;-4.386;2022-09-01T01:58:18;20.39;71.24
73547;SHT30;61807;48.384;-4.386;2022-09-01T02:00:44;20.37;71.33
73547;SHT30;61807;48.384;-4.386;2022-09-01T02:03:12;20.33;71.33
73547;SHT30;61807;48.384;-4.386;2022-09-01T02:05:41;20.32;71.43
73547;SHT30;61807;48.384;-4.386;2022-09-01T02:08:09;20.30;71.49
73547;SHT30;61807;48.384;-4.386;2022-09-01T02:10:41;20.26;71.54
73547;SHT30;61807;48.384;-4.386;2022-09-01T02:13:09;20.28;71.60
73547;SHT30;61807;48.384;-4.386;2022-09-01T02:15:43;20.28;71.67
73547;SHT30;61807;48.384;-4.386;2022-09-01T02:18:25;20.28;71.82
73547;SHT30;61807;48.384;-4.386;2022-09-01T02:20:53;20.30;71.73
73547;SHT30;61807;48.384;-4.386;2022-09-01T02:23:21;20.28;71.70
73547;SHT30;61807;48.384;-4.386;2022-09-01T02:25:53;20.32;71.76
73547;SHT30;61807;48.384;-4.386;2022-09-01T02:28:20;20.33;71.67
73547;SHT30;61807;48.384;-4.386;2022-09-01T02:30:49;20.33;71.76
73547;SHT30;61807;48.384;-4.386;2022-09-01T02:33:18;20.35;71.67
73547;SHT30;61807;48.384;-4.386;2022-09-01T02:35:45;20.33;71.61
73547;SHT30;61807;48.384;-4.386;2022-09-01T02:38:11;20.35;71.61
73547;SHT30;61807;48.384;-4.386;2022-09-01T02:40:39;20.36;71.72
73547;SHT30;61807;48.384;-4.386;2022-09-01T02:43:09;20.36;71.60
73547;SHT30;61807;48.384;-4.386;2022-09-01T02:45:36;20.36;71.62
73547;SHT30;61807;48.384;-4.386;2022-09-01T02:48:04;20.36;71.61
73547;SHT30;61807;48.384;-4.386;2022-09-01T02:50:34;20.36;71.61
73547;SHT30;61807;48.384;-4.386;2022-09-01T02:53:00;20.37;71.67
73547;SHT30;61807;48.384;-4.386;2022-09-01T02:55:26;20.36;71.73
73547;SHT30;61807;48.384;-4.386;2022-09-01T02:57:51;20.32;71.73
73547;SHT30;61807;48.384;-4.386;2022-09-01T03:00:23;20.32;71.76
73547;SHT30;61807;48.384;-4.386;2022-09-01T03:02:55;20.30;71.80
73547;SHT30;61807;48.384;-4.386;2022-09-01T03:05:23;20.28;71.90
73547;SHT30;61807;48.384;-4.386;2022-09-01T03:07:56;20.30;72.05
73547;SHT30;61807;48.384;-4.386;2022-09-01T03:10:31;20.29;71.98
73547;SHT30;61807;48.384;-4.386;2022-09-01T03:13:05;20.29;72.02
73547;SHT30;61807;48.384;-4.386;2022-09-01T03:15:33;20.32;72.04
73547;SHT30;61807;48.384;-4.386;2022-09-01T03:18:01;20.32;71.99
73547;SHT30;61807;48.384;-4.386;2022-09-01T03:20:29;20.36;71.95
73547;SHT30;61807;48.384;-4.386;2022-09-01T03:22:55;20.35;71.97
73547;SHT30;61807;48.384;-4.386;2022-09-01T03:25:23;20.35;71.95
73547;SHT30;61807;48.384;-4.386;2022-09-01T03:27:51;20.37;71.95
73547;SHT30;61807;48.384;-4.386;2022-09-01T03:30:17;20.37;71.94
73547;SHT30;61807;48.384;-4.386;2022-09-01T03:32:42;20.37;72.00
73547;SHT30;61807;48.384;-4.386;2022-09-01T03:35:10;20.37;72.00
73547;SHT30;61807;48.384;-4.386;2022-09-01T03:37:36;20.35;72.03
73547;SHT30;61807;48.384;-4.386;2022-09-01T03:40:04;20.35;72.00
73547;SHT30;61807;48.384;-4.386;2022-09-01T03:42:30;20.40;71.96
73547;SHT30;61807;48.384;-4.386;2022-09-01T03:44:56;20.39;71.97
73547;SHT30;61807;48.384;-4.386;2022-09-01T03:47:22;20.40;71.94
73547;SHT30;61807;48.384;-4.386;2022-09-01T03:49:49;20.42;71.93
73547;SHT30;61807;48.384;-4.386;2022-09-01T03:52:16;20.42;71.98
73547;SHT30;61807;48.384;-4.386;2022-09-01T03:54:42;20.42;71.94
73547;SHT30;61807;48.384;-4.386;2022-09-01T03:57:08;20.40;71.92
73547;SHT30;61807;48.384;-4.386;2022-09-01T03:59:35;20.40;71.98
73547;SHT30;61807;48.384;-4.386;2022-09-01T04:02:01;20.40;72.02
73547;SHT30;61807;48.384;-4.386;2022-09-01T04:04:27;20.40;72.03
73547;SHT30;61807;48.384;-4.386;2022-09-01T04:06:57;20.42;72.09
73547;SHT30;61807;48.384;-4.386;2022-09-01T04:09:25;20.36;72.20
73547;SHT30;61807;48.384;-4.386;2022-09-01T04:11:51;20.32;72.22
73547;SHT30;61807;48.384;-4.386;2022-09-01T04:14:17;20.32;72.26
73547;SHT30;61807;48.384;-4.386;2022-09-01T04:16:43;20.28;72.29
73547;SHT30;61807;48.384;-4.386;2022-09-01T04:19:27;20.28;72.35
73547;SHT30;61807;48.384;-4.386;2022-09-01T04:21:57;20.22;72.47
73547;SHT30;61807;48.384;-4.386;2022-09-01T04:24:29;20.19;72.49
73547;SHT30;61807;48.384;-4.386;2022-09-01T04:26:56;20.19;72.58
73547;SHT30;61807;48.384;-4.386;2022-09-01T04:29:23;20.21;72.65
73547;SHT30;61807;48.384;-4.386;2022-09-01T04:31:52;20.22;72.65
73547;SHT30;61807;48.384;-4.386;2022-09-01T04:34:20;20.21;72.71
73547;SHT30;61807;48.384;-4.386;2022-09-01T04:36:47;20.25;72.79
73547;SHT30;61807;48.384;-4.386;2022-09-01T04:39:13;20.25;72.89
73547;SHT30;61807;48.384;-4.386;2022-09-01T04:41:43;20.24;72.95
73547;SHT30;61807;48.384;-4.386;2022-09-01T04:44:11;20.25;73.07
73547;SHT30;61807;48.384;-4.386;2022-09-01T04:46:39;20.24;73.17
73547;SHT30;61807;48.384;-4.386;2022-09-01T04:49:07;20.24;73.17
73547;SHT30;61807;48.384;-4.386;2022-09-01T04:51:40;20.24;73.74
73547;SHT30;61807;48.384;-4.386;2022-09-01T04:54:07;20.21;73.40
73547;SHT30;61807;48.384;-4.386;2022-09-01T04:56:36;20.24;73.37
73547;SHT30;61807;48.384;-4.386;2022-09-01T04:59:02;20.24;73.43
73547;SHT30;61807;48.384;-4.386;2022-09-01T05:01:32;20.22;73.46
73547;SHT30;61807;48.384;-4.386;2022-09-01T05:04:18;20.26;73.45
73547;SHT30;61807;48.384;-4.386;2022-09-01T05:06:47;20.26;73.51
73547;SHT30;61807;48.384;-4.386;2022-09-01T05:09:14;20.24;73.50
73547;SHT30;61807;48.384;-4.386;2022-09-01T05:11:42;20.26;73.58
73547;SHT30;61807;48.384;-4.386;2022-09-01T05:14:10;20.26;73.62
73547;SHT30;61807;48.384;-4.386;2022-09-01T05:16:37;20.26;73.60
73547;SHT30;61807;48.384;-4.386;2022-09-01T05:19:06;20.28;73.57
73547;SHT30;61807;48.384;-4.386;2022-09-01T05:21:31;20.29;73.62
73547;SHT30;61807;48.384;-4.386;2022-09-01T05:23:58;20.32;73.57
73547;SHT30;61807;48.384;-4.386;2022-09-01T05:26:29;20.30;73.61
73547;SHT30;61807;48.384;-4.386;2022-09-01T05:28:58;20.32;73.61
73547;SHT30;61807;48.384;-4.386;2022-09-01T05:31:25;20.33;73.61
73547;SHT30;61807;48.384;-4.386;2022-09-01T05:33:52;20.32;73.68
73547;SHT30;61807;48.384;-4.386;2022-09-01T05:36:21;20.35;73.66
73547;SHT30;61807;48.384;-4.386;2022-09-01T05:38:49;20.37;73.65
73547;SHT30;61807;48.384;-4.386;2022-09-01T05:41:17;20.36;73.71
73547;SHT30;61807;48.384;-4.386;2022-09-01T05:43:45;20.37;73.76
73547;SHT30;61807;48.384;-4.386;2022-09-01T05:46:18;20.36;73.76
73547;SHT30;61807;48.384;-4.386;2022-09-01T05:48:46;20.37;73.78
73547;SHT30;61807;48.384;-4.386;2022-09-01T05:51:15;20.35;73.83
73547;SHT30;61807;48.384;-4.386;2022-09-01T05:53:42;20.37;73.85
73547;SHT30;61807;48.384;-4.386;2022-09-01T05:56:08;20.35;73.92
73547;SHT30;61807;48.384;-4.386;2022-09-01T05:58:35;20.35;73.89
73547;SHT30;61807;48.384;-4.386;2022-09-01T06:01:02;20.32;73.90
73547;SHT30;61807;48.384;-4.386;2022-09-01T06:03:28;20.36;73.89
73547;SHT30;61807;48.384;-4.386;2022-09-01T06:05:55;20.32;73.91
73547;SHT30;61807;48.384;-4.386;2022-09-01T06:08:25;20.30;73.92
73547;SHT30;61807;48.384;-4.386;2022-09-01T06:10:53;20.35;73.91
73547;SHT30;61807;48.384;-4.386;2022-09-01T06:13:19;20.35;73.92
73547;SHT30;61807;48.384;-4.386;2022-09-01T06:15:47;20.36;73.97
73547;SHT30;61807;48.384;-4.386;2022-09-01T06:18:14;20.35;73.91
73547;SHT30;61807;48.384;-4.386;2022-09-01T06:20:43;20.37;74.11
73547;SHT30;61807;48.384;-4.386;2022-09-01T06:23:10;20.35;74.00
73547;SHT30;61807;48.384;-4.386;2022-09-01T06:25:45;20.33;74.05
73547;SHT30;61807;48.384;-4.386;2022-09-01T06:28:15;20.35;74.07
73547;SHT30;61807;48.384;-4.386;2022-09-01T06:30:42;20.36;74.10
73547;SHT30;61807;48.384;-4.386;2022-09-01T06:33:09;20.39;74.13
73547;SHT30;61807;48.384;-4.386;2022-09-01T06:35:36;20.40;74.12
73547;SHT30;61807;48.384;-4.386;2022-09-01T06:38:04;20.45;74.15
73547;SHT30;61807;48.384;-4.386;2022-09-01T06:40:32;20.45;74.19
73547;SHT30;61807;48.384;-4.386;2022-09-01T06:42:58;20.47;74.11
73547;SHT30;61807;48.384;-4.386;2022-09-01T06:45:24;20.50;74.15
73547;SHT30;61807;48.384;-4.386;2022-09-01T06:47:51;20.52;74.12
73547;SHT30;61807;48.384;-4.386;2022-09-01T06:50:19;20.56;74.12
73547;SHT30;61807;48.384;-4.386;2022-09-01T06:52:47;20.62;74.15
73547;SHT30;61807;48.384;-4.386;2022-09-01T06:55:14;20.63;74.03
73547;SHT30;61807;48.384;-4.386;2022-09-01T06:57:42;20.69;74.07
73547;SHT30;61807;48.384;-4.386;2022-09-01T07:00:13;20.73;73.93
73547;SHT30;61807;48.384;-4.386;2022-09-01T07:02:46;20.77;73.96
73547;SHT30;61807;48.384;-4.386;2022-09-01T07:05:13;20.80;73.95
73547;SHT30;61807;48.384;-4.386;2022-09-01T07:07:52;20.85;73.90
73547;SHT30;61807;48.384;-4.386;2022-09-01T07:10:20;20.88;73.87
73547;SHT30;61807;48.384;-4.386;2022-09-01T07:12:54;20.88;73.90
73547;SHT30;61807;48.384;-4.386;2022-09-01T07:15:21;20.90;73.83
73547;SHT30;61807;48.384;-4.386;2022-09-01T07:17:49;20.90;73.85
73547;SHT30;61807;48.384;-4.386;2022-09-01T07:20:19;20.87;73.77
73547;SHT30;61807;48.384;-4.386;2022-09-01T07:22:47;20.87;73.93
73547;SHT30;61807;48.384;-4.386;2022-09-01T07:25:13;20.90;73.99
73547;SHT30;61807;48.384;-4.386;2022-09-01T07:27:40;20.93;74.05
73547;SHT30;61807;48.384;-4.386;2022-09-01T07:30:19;20.94;74.05
73547;SHT30;61807;48.384;-4.386;2022-09-01T07:32:45;20.93;74.04
73547;SHT30;61807;48.384;-4.386;2022-09-01T07:35:14;20.93;74.11
73547;SHT30;61807;48.384;-4.386;2022-09-01T07:37:39;20.94;74.09
73547;SHT30;61807;48.384;-4.386;2022-09-01T07:40:08;20.97;74.04
73547;SHT30;61807;48.384;-4.386;2022-09-01T07:42:35;20.97;74.03
73547;SHT30;61807;48.384;-4.386;2022-09-01T07:45:03;20.97;74.02
73547;SHT30;61807;48.384;-4.386;2022-09-01T07:47:33;20.97;73.96
73547;SHT30;61807;48.384;-4.386;2022-09-01T07:50:04;21.00;73.86
73547;SHT30;61807;48.384;-4.386;2022-09-01T07:52:37;21.05;73.84
73547;SHT30;61807;48.384;-4.386;2022-09-01T07:55:10;21.11;73.78
73547;SHT30;61807;48.384;-4.386;2022-09-01T07:57:41;21.17;73.70
73547;SHT30;61807;48.384;-4.386;2022-09-01T08:00:09;21.27;73.69
73547;SHT30;61807;48.384;-4.386;2022-09-01T08:02:35;21.43;73.44
73547;SHT30;61807;48.384;-4.386;2022-09-01T08:05:05;21.53;73.34
73547;SHT30;61807;48.384;-4.386;2022-09-01T08:07:37;21.65;72.89
73547;SHT30;61807;48.384;-4.386;2022-09-01T08:10:03;21.67;72.86
73547;SHT30;61807;48.384;-4.386;2022-09-01T08:12:29;21.63;72.73
73547;SHT30;61807;48.384;-4.386;2022-09-01T08:14:55;21.66;72.74
73547;SHT30;61807;48.384;-4.386;2022-09-01T08:17:20;21.73;72.57
73547;SHT30;61807;48.384;-4.386;2022-09-01T08:19:46;21.83;72.57
73547;SHT30;61807;48.384;-4.386;2022-09-01T08:22:12;21.94;72.49
73547;SHT30;61807;48.384;-4.386;2022-09-01T08:24:38;22.10;72.08
73547;SHT30;61807;48.384;-4.386;2022-09-01T08:27:03;22.21;71.95
73547;SHT30;61807;48.384;-4.386;2022-09-01T08:29:29;22.33;71.34
73547;SHT30;61807;48.384;-4.386;2022-09-01T08:31:54;22.27;71.19
73547;SHT30;61807;48.384;-4.386;2022-09-01T08:34:22;22.34;71.29
73547;SHT30;61807;48.384;-4.386;2022-09-01T08:36:48;22.50;71.24
73547;SHT30;61807;48.384;-4.386;2022-09-01T08:39:13;22.51;70.59
73547;SHT30;61807;48.384;-4.386;2022-09-01T08:41:46;22.59;70.51
73547;SHT30;61807;48.384;-4.386;2022-09-01T08:47:08;22.82;70.24
73547;SHT30;61807;48.384;-4.386;2022-09-01T08:49:37;22.91;70.00
73547;SHT30;61807;48.384;-4.386;2022-09-01T08:59:46;23.13;69.05
73547;SHT30;61807;48.384;-4.386;2022-09-01T09:03:36;23.16;68.99
73547;SHT30;61807;48.384;-4.386;2022-09-01T09:09:03;23.23;68.80
73547;SHT30;61807;48.384;-4.386;2022-09-01T09:16:53;23.33;68.29
73547;SHT30;61807;48.384;-4.386;2022-09-01T09:19:23;23.39;68.19
73547;SHT30;61807;48.384;-4.386;2022-09-01T09:21:52;23.43;68.40
73547;SHT30;61807;48.384;-4.386;2022-09-01T09:27:26;23.53;68.23
73547;SHT30;61807;48.384;-4.386;2022-09-01T09:29:55;23.60;67.96
73547;SHT30;61807;48.384;-4.386;2022-09-01T09:32:24;23.61;67.82
73547;SHT30;61807;48.384;-4.386;2022-09-01T09:35:33;23.66;67.72
73547;SHT30;61807;48.384;-4.386;2022-09-01T09:41:07;23.70;66.99
73547;SHT30;61807;48.384;-4.386;2022-09-01T09:43:38;23.78;67.00
73547;SHT30;61807;48.384;-4.386;2022-09-01T09:46:25;23.97;66.21
73547;SHT30;61807;48.384;-4.386;2022-09-01T09:54:36;24.72;65.37
73547;SHT30;61807;48.384;-4.386;2022-09-01T09:57:10;24.88;65.05
73547;SHT30;61807;48.384;-4.386;2022-09-01T09:59:41;24.91;64.76
73547;SHT30;61807;48.384;-4.386;2022-09-01T10:02:35;24.87;64.29
73547;SHT30;61807;48.384;-4.386;2022-09-01T10:07:55;24.77;63.70
73547;SHT30;61807;48.384;-4.386;2022-09-01T10:10:36;24.80;64.07
73547;SHT30;61807;48.384;-4.386;2022-09-01T10:13:04;24.91;63.65
73547;SHT30;61807;48.384;-4.386;2022-09-01T10:15:32;25.04;62.84
73547;SHT30;61807;48.384;-4.386;2022-09-01T10:18:05;25.06;62.67
73547;SHT30;61807;48.384;-4.386;2022-09-01T10:20:33;25.01;62.21
73547;SHT30;61807;48.384;-4.386;2022-09-01T10:23:00;25.01;62.55
73547;SHT30;61807;48.384;-4.386;2022-09-01T10:25:28;25.06;62.69
73547;SHT30;61807;48.384;-4.386;2022-09-01T10:28:20;25.08;62.71
73547;SHT30;61807;48.384;-4.386;2022-09-01T10:30:50;25.10;62.60
73547;SHT30;61807;48.384;-4.386;2022-09-01T10:33:17;25.10;62.49
73547;SHT30;61807;48.384;-4.386;2022-09-01T10:35:45;25.08;62.12
73547;SHT30;61807;48.384;-4.386;2022-09-01T10:38:18;25.07;62.13
73547;SHT30;61807;48.384;-4.386;2022-09-01T10:40:47;25.07;62.77
73547;SHT30;61807;48.384;-4.386;2022-09-01T10:43:44;25.08;62.81
73547;SHT30;61807;48.384;-4.386;2022-09-01T10:48:45;25.07;63.11
73547;SHT30;61807;48.384;-4.386;2022-09-01T10:53:58;25.14;62.66
73547;SHT30;61807;48.384;-4.386;2022-09-01T10:56:48;25.18;62.16
73547;SHT30;61807;48.384;-4.386;2022-09-01T11:09:39;25.45;61.81
73547;SHT30;61807;48.384;-4.386;2022-09-01T11:15:04;25.61;61.74
73547;SHT30;61807;48.384;-4.386;2022-09-01T11:17:38;25.59;61.10
73547;SHT30;61807;48.384;-4.386;2022-09-01T11:20:31;25.51;60.88
73547;SHT30;61807;48.384;-4.386;2022-09-01T11:23:06;25.48;60.66
73547;SHT30;61807;48.384;-4.386;2022-09-01T11:30:36;25.73;60.64
73547;SHT30;61807;48.384;-4.386;2022-09-01T11:35:42;25.78;59.66
73547;SHT30;61807;48.384;-4.386;2022-09-01T11:38:11;25.71;57.91
73547;SHT30;61807;48.384;-4.386;2022-09-01T11:40:37;25.58;60.01
73547;SHT30;61807;48.384;-4.386;2022-09-01T11:43:14;25.61;60.34
73547;SHT30;61807;48.384;-4.386;2022-09-01T11:48:22;25.75;59.88
73547;SHT30;61807;48.384;-4.386;2022-09-01T11:50:57;25.73;59.89
73547;SHT30;61807;48.384;-4.386;2022-09-01T11:53:25;25.72;59.24
73547;SHT30;61807;48.384;-4.386;2022-09-01T11:55:53;25.69;59.64
73547;SHT30;61807;48.384;-4.386;2022-09-01T11:58:30;25.65;59.98
73547;SHT30;61807;48.384;-4.386;2022-09-01T12:01:21;25.68;60.42
73547;SHT30;61807;48.384;-4.386;2022-09-01T12:03:48;25.73;60.22
73547;SHT30;61807;48.384;-4.386;2022-09-01T12:06:21;25.72;60.65
73547;SHT30;61807;48.384;-4.386;2022-09-01T12:08:54;25.79;60.74
73547;SHT30;61807;48.384;-4.386;2022-09-01T12:11:27;25.86;60.48
73547;SHT30;61807;48.384;-4.386;2022-09-01T12:14:06;25.96;60.35
73547;SHT30;61807;48.384;-4.386;2022-09-01T12:16:34;26.04;60.64
73547;SHT30;61807;48.384;-4.386;2022-09-01T12:19:02;26.10;60.70
73547;SHT30;61807;48.384;-4.386;2022-09-01T12:21:29;26.26;60.63
73547;SHT30;61807;48.384;-4.386;2022-09-01T12:24:17;26.39;59.82
73547;SHT30;61807;48.384;-4.386;2022-09-01T12:26:45;26.44;59.72
73547;SHT30;61807;48.384;-4.386;2022-09-01T12:29:12;26.48;59.49
73547;SHT30;61807;48.384;-4.386;2022-09-01T12:31:43;26.55;59.36
73547;SHT30;61807;48.384;-4.386;2022-09-01T12:34:46;26.67;59.69
73547;SHT30;61807;48.384;-4.386;2022-09-01T12:39:41;26.74;58.32
73547;SHT30;61807;48.384;-4.386;2022-09-01T12:42:21;26.67;58.59
73547;SHT30;61807;48.384;-4.386;2022-09-01T12:52:51;26.51;57.50
73547;SHT30;61807;48.384;-4.386;2022-09-01T12:55:27;26.34;58.39
73547;SHT30;61807;48.384;-4.386;2022-09-01T12:57:58;26.29;58.77
73547;SHT30;61807;48.384;-4.386;2022-09-01T13:00:27;26.21;58.83
73547;SHT30;61807;48.384;-4.386;2022-09-01T13:05:34;26.10;59.23
73547;SHT30;61807;48.384;-4.386;2022-09-01T13:08:05;25.97;59.07
73547;SHT30;61807;48.384;-4.386;2022-09-01T13:11:22;25.93;59.86
73547;SHT30;61807;48.384;-4.386;2022-09-01T13:13:24;25.96;59.66
73547;SHT30;61807;48.384;-4.386;2022-09-01T13:15:53;25.83;59.69
73547;SHT30;61807;48.384;-4.386;2022-09-01T13:18:20;25.68;59.95
73547;SHT30;61807;48.384;-4.386;2022-09-01T13:20:47;25.55;60.22
73547;SHT30;61807;48.384;-4.386;2022-09-01T13:23:13;25.51;60.52
73547;SHT30;61807;48.384;-4.386;2022-09-01T13:25:39;25.52;60.32
73547;SHT30;61807;48.384;-4.386;2022-09-01T13:28:06;25.62;60.35
73547;SHT30;61807;48.384;-4.386;2022-09-01T13:30:32;25.69;60.24
73547;SHT30;61807;48.384;-4.386;2022-09-01T13:32:58;25.86;60.40
73547;SHT30;61807;48.384;-4.386;2022-09-01T13:35:24;25.93;59.68
73547;SHT30;61807;48.384;-4.386;2022-09-01T13:37:50;26.06;59.88
73547;SHT30;61807;48.384;-4.386;2022-09-01T13:40:17;26.13;59.74
73547;SHT30;61807;48.384;-4.386;2022-09-01T13:42:48;26.13;59.56
73547;SHT30;61807;48.384;-4.386;2022-09-01T13:45:16;26.02;59.23
73547;SHT30;61807;48.384;-4.386;2022-09-01T13:47:44;25.89;59.08
73547;SHT30;61807;48.384;-4.386;2022-09-01T13:50:12;25.78;59.44
73547;SHT30;61807;48.384;-4.386;2022-09-01T13:52:40;25.75;59.70
73547;SHT30;61807;48.384;-4.386;2022-09-01T13:55:09;25.75;59.86
73547;SHT30;61807;48.384;-4.386;2022-09-01T13:57:35;25.72;59.79
73547;SHT30;61807;48.384;-4.386;2022-09-01T14:00:00;25.62;60.15
73547;SHT30;61807;48.384;-4.386;2022-09-01T14:02:26;25.49;60.52
73547;SHT30;61807;48.384;-4.386;2022-09-01T14:04:51;25.38;60.87
73547;SHT30;61807;48.384;-4.386;2022-09-01T14:07:17;25.24;60.92
73547;SHT30;61807;48.384;-4.386;2022-09-01T14:09:43;25.13;61.31
73547;SHT30;61807;48.384;-4.386;2022-09-01T14:12:09;25.03;61.65
73547;SHT30;61807;48.384;-4.386;2022-09-01T14:14:35;24.91;62.05
73547;SHT30;61807;48.384;-4.386;2022-09-01T14:17:00;24.80;62.34
73547;SHT30;61807;48.384;-4.386;2022-09-01T14:19:26;24.62;62.68
73547;SHT30;61807;48.384;-4.386;2022-09-01T14:21:54;24.45;63.13
73547;SHT30;61807;48.384;-4.386;2022-09-01T14:24:21;24.28;63.55
73547;SHT30;61807;48.384;-4.386;2022-09-01T14:26:46;24.14;64.02
73547;SHT30;61807;48.384;-4.386;2022-09-01T14:29:12;24.00;64.63
73547;SHT30;61807;48.384;-4.386;2022-09-01T14:31:38;23.97;65.16
73547;SHT30;61807;48.384;-4.386;2022-09-01T14:34:04;23.88;65.66
73547;SHT30;61807;48.384;-4.386;2022-09-01T14:36:31;23.82;66.25
73547;SHT30;61807;48.384;-4.386;2022-09-01T14:38:56;23.75;66.28
73547;SHT30;61807;48.384;-4.386;2022-09-01T14:41:23;23.70;67.27
73547;SHT30;61807;48.384;-4.386;2022-09-01T14:43:53;23.64;67.61
73547;SHT30;61807;48.384;-4.386;2022-09-01T14:46:19;23.58;68.08
73547;SHT30;61807;48.384;-4.386;2022-09-01T14:48:46;23.54;68.26
73547;SHT30;61807;48.384;-4.386;2022-09-01T14:51:24;23.46;68.71
73547;SHT30;61807;48.384;-4.386;2022-09-01T14:53:50;23.43;68.99
73547;SHT30;61807;48.384;-4.386;2022-09-01T14:56:16;23.37;68.93
73547;SHT30;61807;48.384;-4.386;2022-09-01T14:58:44;23.33;69.59
73547;SHT30;61807;48.384;-4.386;2022-09-01T15:01:12;23.29;69.87
73547;SHT30;61807;48.384;-4.386;2022-09-01T15:03:39;23.20;69.39
73547;SHT30;61807;48.384;-4.386;2022-09-01T15:06:04;23.05;69.27
73547;SHT30;61807;48.384;-4.386;2022-09-01T15:08:30;22.95;69.43
73547;SHT30;61807;48.384;-4.386;2022-09-01T15:10:55;22.87;69.75
73547;SHT30;61807;48.384;-4.386;2022-09-01T15:13:21;22.79;69.86
73547;SHT30;61807;48.384;-4.386;2022-09-01T15:15:46;22.73;70.68
73547;SHT30;61807;48.384;-4.386;2022-09-01T15:18:11;22.68;70.73
73547;SHT30;61807;48.384;-4.386;2022-09-01T15:20:41;22.62;71.00
73547;SHT30;61807;48.384;-4.386;2022-09-01T15:23:11;22.58;71.33
73547;SHT30;61807;48.384;-4.386;2022-09-01T15:25:37;22.58;71.24
73547;SHT30;61807;48.384;-4.386;2022-09-01T15:28:03;22.55;71.44
73547;SHT30;61807;48.384;-4.386;2022-09-01T15:30:28;22.48;71.90
73547;SHT30;61807;48.384;-4.386;2022-09-01T15:32:55;22.40;72.19
73547;SHT30;61807;48.384;-4.386;2022-09-01T15:35:20;22.36;72.16
73547;SHT30;61807;48.384;-4.386;2022-09-01T15:37:47;22.31;72.12
73547;SHT30;61807;48.384;-4.386;2022-09-01T15:40:14;22.31;72.47
73547;SHT30;61807;48.384;-4.386;2022-09-01T15:42:39;22.34;72.87
73547;SHT30;61807;48.384;-4.386;2022-09-01T15:45:08;22.43;73.05
73547;SHT30;61807;48.384;-4.386;2022-09-01T15:47:34;22.41;72.86
73547;SHT30;61807;48.384;-4.386;2022-09-01T15:50:00;22.37;72.82
73547;SHT30;61807;48.384;-4.386;2022-09-01T15:52:25;22.33;72.85
73547;SHT30;61807;48.384;-4.386;2022-09-01T15:54:52;22.27;72.93
73547;SHT30;61807;48.384;-4.386;2022-09-01T15:57:18;22.21;73.16
73547;SHT30;61807;48.384;-4.386;2022-09-01T15:59:43;22.20;73.38
73547;SHT30;61807;48.384;-4.386;2022-09-01T16:02:09;22.20;73.49
73547;SHT30;61807;48.384;-4.386;2022-09-01T16:04:36;22.18;73.69
73547;SHT30;61807;48.384;-4.386;2022-09-01T16:07:02;22.17;73.88
73547;SHT30;61807;48.384;-4.386;2022-09-01T16:09:28;22.11;73.92
73547;SHT30;61807;48.384;-4.386;2022-09-01T16:11:53;22.09;73.65
73547;SHT30;61807;48.384;-4.386;2022-09-01T16:14:20;22.01;73.76
73547;SHT30;61807;48.384;-4.386;2022-09-01T16:22:29;21.82;74.43
73547;SHT30;61807;48.384;-4.386;2022-09-01T16:25:00;21.72;74.36
73547;SHT30;61807;48.384;-4.386;2022-09-01T16:27:45;21.71;74.46
73547;SHT30;61807;48.384;-4.386;2022-09-01T16:30:19;21.69;74.65
73547;SHT30;61807;48.384;-4.386;2022-09-01T16:32:47;21.63;74.64
73547;SHT30;61807;48.384;-4.386;2022-09-01T16:35:14;21.66;74.87
73547;SHT30;61807;48.384;-4.386;2022-09-01T16:38:11;21.69;75.09
73547;SHT30;61807;48.384;-4.386;2022-09-01T16:45:57;21.76;75.05
73547;SHT30;61807;48.384;-4.386;2022-09-01T16:48:40;21.73;75.18
73547;SHT30;61807;48.384;-4.386;2022-09-01T16:54:08;21.71;75.17
73547;SHT30;61807;48.384;-4.386;2022-09-01T16:56:52;21.63;74.89
73547;SHT30;61807;48.384;-4.386;2022-09-01T17:00:10;21.59;74.76
73547;SHT30;61807;48.384;-4.386;2022-09-01T17:05:36;21.58;74.92
73547;SHT30;61807;48.384;-4.386;2022-09-01T17:10:46;21.52;75.01